Time;durP1;ratioP1;P1;durP2;ratioP2;P2;SDS_P1;SDS_P2;PMS_P1;PMS_P2;Temp;Humidity;BMP_temperature;BMP_pressure;BME280_temperature;BME280_humidity;BME280_pressure;Samples;Min_cycle;Max_cycle;Signal;HPM_P1;HPM_P2
2023/07/19 00:01:34;;;;;;;;;;;;;;;;;;4917600;29;20284;-82
2023/07/19 00:04:07;;;;;;;;;;;;;;;;;;4917327;29;19931;-82
2023/07/19 00:06:39;;;;;;;;;;;;;;;;;;4900521;29;19939;-81
2023/07/19 00:09:07;;;;;;;;;;;;;;;;;;4916333;29;19931;-80
2023/07/19 00:11:34;;;;;;;;;;;;;;;;;;4898440;29;19927;-82
2023/07/19 00:14:05;;;;;;;;;;;;;;;;;;4899367;29;19931;-81
2023/07/19 00:16:33;;;;;;;;;;;;;;;;;;4917064;29;19927;-82
2023/07/19 00:19:00;;;;;;;;;;;;;;;;;;4916626;29;19927;-82
2023/07/19 00:21:33;;;;;;;;;;;;;;;;;;4897815;29;19927;-82
2023/07/19 00:24:05;;;;;;;;;;;;;;;;;;4913444;29;19950;-82
2023/07/19 00:26:33;;;;;;;;;;;;;;;;;;4906030;29;19949;-82
2023/07/19 00:29:06;;;;;;;;;;;;;;;;;;4914419;29;19935;-82
2023/07/19 00:31:34;;;;;;;;;;;;;;;;;;4915024;29;20301;-83
2023/07/19 00:34:06;;;;;;;;;;;;;;;;;;4899376;29;19927;-82
2023/07/19 00:36:34;;;;;;;;;;;;;;;;;;4912871;29;19938;-82
2023/07/19 00:39:06;;;;;;;;;;;;;;;;;;4913600;29;19938;-82
2023/07/19 00:41:39;;;;;;;;;;;;;;;;;;4906177;29;19931;-82
2023/07/19 00:44:06;;;;;;;;;;;;;;;;;;4899480;29;19938;-82
2023/07/19 00:46:34;;;;;;;;;;;;;;;;;;4913770;29;19934;-81
2023/07/19 00:49:07;;;;;;;;;;;;;;;;;;4916388;29;19931;-81
2023/07/19 00:51:40;;;;;;;;;;;;;;;;;;4915688;29;20384;-81
2023/07/19 00:54:12;;;;;;;;;;;;;;;;;;4914882;29;19938;-83
2023/07/19 00:56:45;;;;;;;;;;;;;;;;;;4915815;29;19939;-82
2023/07/19 00:59:17;;;;;;;;;;;;;;;;;;4914496;29;19928;-81
2023/07/19 01:01:50;;;;;;;;;;;;;;;;;;4897906;29;19934;-82
2023/07/19 01:04:17;;;;;;;;;;;;;;;;;;4916115;29;20376;-82
2023/07/19 01:06:45;;;;;;;;;;;;;;;;;;4914722;29;19934;-80
2023/07/19 01:09:12;;;;;;;;;;;;;;;;;;4916079;29;20017;-82
2023/07/19 01:11:40;;;;;;;;;;;;;;;;;;4915876;29;19931;-81
2023/07/19 01:14:08;;;;;;;;;;;;;;;;;;4915804;29;20375;-82
2023/07/19 01:16:41;;;;;;;;;;;;;;;;;;4914213;29;19927;-81
2023/07/19 01:19:08;;;;;;;;;;;;;;;;;;4914184;29;19927;-81
2023/07/19 01:21:41;;;;;;;;;;;;;;;;;;4897405;29;19934;-82
2023/07/19 01:24:08;;;;;;;;;;;;;;;;;;4913632;29;20281;-82
2023/07/19 01:26:41;;;;;;;;;;;;;;;;;;4913410;29;19927;-82
2023/07/19 01:29:08;;;;;;;;;;;;;;;;;;4912662;29;19927;-82
2023/07/19 01:31:41;;;;;;;;;;;;;;;;;;4898278;29;19927;-81
2023/07/19 01:34:13;;;;;;;;;;;;;;;;;;4915648;29;19934;-81
2023/07/19 01:36:46;;;;;;;;;;;;;;;;;;4915277;29;19927;-82
2023/07/19 01:39:14;;;;;;;;;;;;;;;;;;4913846;29;19935;-82
2023/07/19 01:41:43;;;;;;;;;;;;;;;;;;4899120;29;19938;-82
2023/07/19 01:44:10;;;;;;;;;;;;;;;;;;4906006;29;19927;-81
2023/07/19 01:46:43;;;;;;;;;;;;;;;;;;4913303;29;19934;-81
2023/07/19 01:49:16;;;;;;;;;;;;;;;;;;4915392;29;20291;-81
2023/07/19 01:51:43;;;;;;;;;;;;;;;;;;4915679;29;19927;-82
2023/07/19 01:54:16;;;;;;;;;;;;;;;;;;4903462;29;19951;-81
2023/07/19 01:56:48;;;;;;;;;;;;;;;;;;4896314;29;19942;-81
2023/07/19 01:59:16;;;;;;;;;;;;;;;;;;4913519;29;20308;-82
2023/07/19 02:01:43;;;;;;;;;;;;;;;;;;4904414;29;20376;-81
2023/07/19 02:04:11;;;;;;;;;;;;;;;;;;4913610;29;19950;-80
2023/07/19 02:06:43;;;;;;;;;;;;;;;;;;4912945;29;20411;-81
2023/07/19 02:09:11;;;;;;;;;;;;;;;;;;4897697;29;19938;-80
2023/07/19 02:11:44;;;;;;;;;;;;;;;;;;4913233;29;20793;-82
2023/07/19 02:14:11;;;;;;;;;;;;;;;;;;4913753;29;19927;-82
2023/07/19 02:16:39;;;;;;;;;;;;;;;;;;4907826;29;20280;-81
2023/07/19 02:19:08;;;;;;;;;;;;;;;;;;4915075;29;19934;-81
2023/07/19 02:21:41;;;;;;;;;;;;;;;;;;4903593;29;19931;-82
2023/07/19 02:24:15;;;;;;;;;;;;;;;;;;4914498;29;19931;-82
2023/07/19 02:26:48;;;;;;;;;;;;;;;;;;4914967;29;20388;-80
2023/07/19 02:29:16;;;;;;;;;;;;;;;;;;4915239;29;19935;-81
2023/07/19 02:31:48;;;;;;;;;;;;;;;;;;4907760;29;19938;-81
2023/07/19 02:34:21;;;;;;;;;;;;;;;;;;4896316;29;19927;-81
2023/07/19 02:36:49;;;;;;;;;;;;;;;;;;4912352;29;19927;-81
2023/07/19 02:39:20;;;;;;;;;;;;;;;;;;4914430;29;19931;-81
2023/07/19 02:41:47;;;;;;;;;;;;;;;;;;4897662;29;19927;-81
2023/07/19 02:44:15;;;;;;;;;;;;;;;;;;4912427;29;19938;-82
2023/07/19 02:46:42;;;;;;;;;;;;;;;;;;4915421;29;19927;-82
2023/07/19 02:49:10;;;;;;;;;;;;;;;;;;4913669;29;19937;-82
2023/07/19 02:51:37;;;;;;;;;;;;;;;;;;4909195;29;19927;-82
2023/07/19 02:54:10;;;;;;;;;;;;;;;;;;4914985;29;19938;-82
2023/07/19 02:56:37;;;;;;;;;;;;;;;;;;4912851;29;20454;-81
2023/07/19 02:59:05;;;;;;;;;;;;;;;;;;4914749;29;19942;-82
2023/07/19 03:01:33;;;;;;;;;;;;;;;;;;4897741;29;20269;-82
2023/07/19 03:04:02;;;;;;;;;;;;;;;;;;4905963;29;19931;-83
2023/07/19 03:06:35;;;;;;;;;;;;;;;;;;4910345;29;20285;-82
2023/07/19 03:09:10;;;;;;;;;;;;;;;;;;4900555;29;19934;-81
2023/07/19 03:11:38;;;;;;;;;;;;;;;;;;4911918;29;20410;-81
2023/07/19 03:14:11;;;;;;;;;;;;;;;;;;4908179;29;19931;-83
2023/07/19 03:16:38;;;;;;;;;;;;;;;;;;4905530;29;20269;-82
2023/07/19 03:19:11;;;;;;;;;;;;;;;;;;4916232;29;19939;-83
2023/07/19 03:21:44;;;;;;;;;;;;;;;;;;4918609;29;20481;-81
2023/07/19 03:24:12;;;;;;;;;;;;;;;;;;4916493;29;19934;-82
2023/07/19 03:26:39;;;;;;;;;;;;;;;;;;4916583;29;19931;-82
2023/07/19 03:29:07;;;;;;;;;;;;;;;;;;4915364;29;19927;-82
2023/07/19 03:31:34;;;;;;;;;;;;;;;;;;4906862;29;19927;-81
2023/07/19 03:34:07;;;;;;;;;;;;;;;;;;4908963;29;19934;-82
2023/07/19 03:36:34;;;;;;;;;;;;;;;;;;4916275;29;19927;-81
2023/07/19 03:39:07;;;;;;;;;;;;;;;;;;4917090;29;20013;-82
2023/07/19 03:41:39;;;;;;;;;;;;;;;;;;4916678;29;19942;-81
2023/07/19 03:44:07;;;;;;;;;;;;;;;;;;4916288;29;19934;-81
2023/07/19 03:46:39;;;;;;;;;;;;;;;;;;4909316;29;19979;-81
2023/07/19 03:49:12;;;;;;;;;;;;;;;;;;4900417;29;19934;-82
2023/07/19 03:51:39;;;;;;;;;;;;;;;;;;4916207;29;20297;-80
2023/07/19 03:54:07;;;;;;;;;;;;;;;;;;4915356;29;20304;-80
2023/07/19 03:56:35;;;;;;;;;;;;;;;;;;4916563;29;19931;-82
2023/07/19 03:59:02;;;;;;;;;;;;;;;;;;4899791;29;20352;-82
2023/07/19 04:01:30;;;;;;;;;;;;;;;;;;4908942;29;19927;-81
2023/07/19 04:04:03;;;;;;;;;;;;;;;;;;4908477;29;19934;-81
2023/07/19 04:06:31;;;;;;;;;;;;;;;;;;4915461;29;19942;-81
2023/07/19 04:08:58;;;;;;;;;;;;;;;;;;4915591;29;19931;-81
2023/07/19 04:11:26;;;;;;;;;;;;;;;;;;4914280;29;20339;-81
2023/07/19 04:13:53;;;;;;;;;;;;;;;;;;4906263;29;19938;-81
2023/07/19 04:16:21;;;;;;;;;;;;;;;;;;4900450;29;19931;-81
2023/07/19 04:18:49;;;;;;;;;;;;;;;;;;4910469;29;19934;-81
2023/07/19 04:21:21;;;;;;;;;;;;;;;;;;4897374;29;19939;-81
2023/07/19 04:23:49;;;;;;;;;;;;;;;;;;4903777;29;19931;-81
2023/07/19 04:26:17;;;;;;;;;;;;;;;;;;4915371;29;19927;-82
2023/07/19 04:28:45;;;;;;;;;;;;;;;;;;4906901;29;20392;-81
2023/07/19 04:31:13;;;;;;;;;;;;;;;;;;4896412;29;19934;-81
2023/07/19 04:33:41;;;;;;;;;;;;;;;;;;4899460;29;19928;-81
2023/07/19 04:36:13;;;;;;;;;;;;;;;;;;4914014;29;19927;-82
2023/07/19 04:38:42;;;;;;;;;;;;;;;;;;4908396;29;19954;-82
2023/07/19 04:41:15;;;;;;;;;;;;;;;;;;4915191;29;19927;-82
2023/07/19 04:43:48;;;;;;;;;;;;;;;;;;4896781;29;19934;-81
2023/07/19 04:46:17;;;;;;;;;;;;;;;;;;4916124;29;20536;-82
2023/07/19 04:48:45;;;;;;;;;;;;;;;;;;4898589;29;19931;-83
2023/07/19 04:51:18;;;;;;;;;;;;;;;;;;4917462;29;19934;-81
2023/07/19 04:53:47;;;;;;;;;;;;;;;;;;4900549;29;19927;-80
2023/07/19 04:56:15;;;;;;;;;;;;;;;;;;4914108;29;20346;-81
2023/07/19 04:58:43;;;;;;;;;;;;;;;;;;4898352;29;19927;-81
2023/07/19 05:01:11;;;;;;;;;;;;;;;;;;4897858;29;19927;-81
2023/07/19 05:03:39;;;;;;;;;;;;;;;;;;4914015;29;20304;-81
2023/07/19 05:06:07;;;;;;;;;;;;;;;;;;4899194;29;19938;-81
2023/07/19 05:08:35;;;;;;;;;;;;;;;;;;4898360;29;19931;-81
2023/07/19 05:11:08;;;;;;;;;;;;;;;;;;4896027;29;20001;-80
2023/07/19 05:13:35;;;;;;;;;;;;;;;;;;4913875;29;19934;-81
2023/07/19 05:16:08;;;;;;;;;;;;;;;;;;4896781;29;19943;-80
2023/07/19 05:18:35;;;;;;;;;;;;;;;;;;4897214;29;19927;-81
2023/07/19 05:21:08;;;;;;;;;;;;;;;;;;4898774;29;19927;-81
2023/07/19 05:23:36;;;;;;;;;;;;;;;;;;4906782;29;19927;-81
2023/07/19 05:26:09;;;;;;;;;;;;;;;;;;4896995;29;19934;-80
2023/07/19 05:28:37;;;;;;;;;;;;;;;;;;4914996;29;19931;-80
2023/07/19 05:31:04;;;;;;;;;;;;;;;;;;4915382;29;19931;-81
2023/07/19 05:33:32;;;;;;;;;;;;;;;;;;4914574;29;20385;-81
2023/07/19 05:36:00;;;;;;;;;;;;;;;;;;4913087;29;19939;-81
2023/07/19 05:38:32;;;;;;;;;;;;;;;;;;4915391;29;19931;-82
2023/07/19 05:41:00;;;;;;;;;;;;;;;;;;4913779;29;19938;-79
2023/07/19 05:43:28;;;;;;;;;;;;;;;;;;4915202;29;19934;-81
2023/07/19 05:45:55;;;;;;;;;;;;;;;;;;4911217;29;19931;-81
2023/07/19 05:48:23;;;;;;;;;;;;;;;;;;4911341;29;19931;-81
2023/07/19 05:50:55;;;;;;;;;;;;;;;;;;4914761;29;19931;-81
2023/07/19 05:53:28;;;;;;;;;;;;;;;;;;4897021;29;19934;-81
2023/07/19 05:55:56;;;;;;;;;;;;;;;;;;4914452;29;19938;-80
2023/07/19 05:58:30;;;;;;;;;;;;;;;;;;4915202;29;19934;-81
2023/07/19 06:00:57;;;;;;;;;;;;;;;;;;4897098;29;19931;-82
2023/07/19 06:03:30;;;;;;;;;;;;;;;;;;4913656;29;20003;-82
2023/07/19 06:06:02;;;;;;;;;;;;;;;;;;4914459;29;20298;-80
2023/07/19 06:08:30;;;;;;;;;;;;;;;;;;4907301;29;19931;-81
2023/07/19 06:11:02;;;;;;;;;;;;;;;;;;4898102;29;19927;-80
2023/07/19 06:13:30;;;;;;;;;;;;;;;;;;4913254;29;19939;-81
2023/07/19 06:16:03;;;;;;;;;;;;;;;;;;4913643;29;20364;-79
2023/07/19 06:18:35;;;;;;;;;;;;;;;;;;4912551;29;20276;-82
2023/07/19 06:21:03;;;;;;;;;;;;;;;;;;4913473;29;20415;-80
2023/07/19 06:23:35;;;;;;;;;;;;;;;;;;4912623;29;19938;-82
2023/07/19 06:26:03;;;;;;;;;;;;;;;;;;4913108;29;19927;-82
2023/07/19 06:28:31;;;;;;;;;;;;;;;;;;4912053;29;19934;-81
2023/07/19 06:30:58;;;;;;;;;;;;;;;;;;4897085;29;19927;-80
2023/07/19 06:33:31;;;;;;;;;;;;;;;;;;4914731;29;19927;-80
2023/07/19 06:36:03;;;;;;;;;;;;;;;;;;4911344;29;20380;-81
2023/07/19 06:38:31;;;;;;;;;;;;;;;;;;4913305;29;19947;-81
2023/07/19 06:40:59;;;;;;;;;;;;;;;;;;4912621;29;19927;-81
2023/07/19 06:43:27;;;;;;;;;;;;;;;;;;4913497;29;19927;-78
2023/07/19 06:45:54;;;;;;;;;;;;;;;;;;4915233;29;19934;-81
2023/07/19 06:48:27;;;;;;;;;;;;;;;;;;4912016;29;19935;-82
2023/07/19 06:50:56;;;;;;;;;;;;;;;;;;4915609;29;20312;-81
2023/07/19 06:53:24;;;;;;;;;;;;;;;;;;4914913;29;19935;-81
2023/07/19 06:55:56;;;;;;;;;;;;;;;;;;4893838;29;20410;-81
2023/07/19 06:58:29;;;;;;;;;;;;;;;;;;4913593;29;20288;-82
2023/07/19 07:00:56;;;;;;;;;;;;;;;;;;4898736;29;19927;-81
2023/07/19 07:03:24;;;;;;;;;;;;;;;;;;4913557;29;19927;-81
2023/07/19 07:05:58;;;;;;;;;;;;;;;;;;4899154;29;19934;-81
2023/07/19 07:08:30;;;;;;;;;;;;;;;;;;4916676;29;19938;-81
2023/07/19 07:11:04;;;;;;;;;;;;;;;;;;4915594;29;19942;-82
2023/07/19 07:13:36;;;;;;;;;;;;;;;;;;4913197;29;20292;-80
2023/07/19 07:16:04;;;;;;;;;;;;;;;;;;4896053;29;20037;-83
2023/07/19 07:18:37;;;;;;;;;;;;;;;;;;4911825;29;19934;-81
2023/07/19 07:21:04;;;;;;;;;;;;;;;;;;4912556;29;20724;-81
2023/07/19 07:23:37;;;;;;;;;;;;;;;;;;4914868;29;19956;-81
2023/07/19 07:26:10;;;;;;;;;;;;;;;;;;4915475;29;19931;-80
2023/07/19 07:28:37;;;;;;;;;;;;;;;;;;4912913;29;20316;-81
2023/07/19 07:31:09;;;;;;;;;;;;;;;;;;4915202;29;19934;-82
2023/07/19 07:33:42;;;;;;;;;;;;;;;;;;4895972;29;19934;-82
2023/07/19 07:36:09;;;;;;;;;;;;;;;;;;4896974;29;19935;-80
2023/07/19 07:38:37;;;;;;;;;;;;;;;;;;4903210;29;20406;-80
2023/07/19 07:41:11;;;;;;;;;;;;;;;;;;4891303;29;19935;-78
2023/07/19 07:43:39;;;;;;;;;;;;;;;;;;4901765;29;19936;-78
2023/07/19 07:46:07;;;;;;;;;;;;;;;;;;4887276;29;20481;-80
2023/07/19 07:48:34;;;;;;;;;;;;;;;;;;4894992;29;19928;-81
2023/07/19 07:51:02;;;;;;;;;;;;;;;;;;4886354;29;19943;-80
2023/07/19 07:53:29;;;;;;;;;;;;;;;;;;4873306;29;19942;-81
2023/07/19 07:55:57;;;;;;;;;;;;;;;;;;4888121;29;20395;-80
2023/07/19 07:58:25;;;;;;;;;;;;;;;;;;4873784;29;19941;-81
2023/07/19 08:00:58;;;;;;;;;;;;;;;;;;4887465;29;19934;-80
2023/07/19 08:03:26;;;;;;;;;;;;;;;;;;4884906;29;19935;-81
2023/07/19 08:05:58;;;;;;;;;;;;;;;;;;4887068;29;20609;-81
2023/07/19 08:08:31;;;;;;;;;;;;;;;;;;4870340;29;19935;-81
2023/07/19 08:11:04;;;;;;;;;;;;;;;;;;4891051;29;20281;-79
2023/07/19 08:13:31;;;;;;;;;;;;;;;;;;4887441;29;19935;-80
2023/07/19 08:15:59;;;;;;;;;;;;;;;;;;4885389;29;19957;-80
2023/07/19 08:18:26;;;;;;;;;;;;;;;;;;4885737;29;19935;-79
2023/07/19 08:20:54;;;;;;;;;;;;;;;;;;4885746;29;21283;-82
2023/07/19 08:23:27;;;;;;;;;;;;;;;;;;4885053;29;19935;-80
2023/07/19 08:25:59;;;;;;;;;;;;;;;;;;4887706;29;19935;-79
2023/07/19 08:28:27;;;;;;;;;;;;;;;;;;4887178;29;19935;-79
2023/07/19 08:30:54;;;;;;;;;;;;;;;;;;4883415;29;19942;-83
2023/07/19 08:33:22;;;;;;;;;;;;;;;;;;4888803;29;19935;-79
2023/07/19 08:35:50;;;;;;;;;;;;;;;;;;4883631;29;19935;-79
2023/07/19 08:38:23;;;;;;;;;;;;;;;;;;4876006;29;19935;-80
2023/07/19 08:40:50;;;;;;;;;;;;;;;;;;4887420;29;19935;-83
2023/07/19 08:43:23;;;;;;;;;;;;;;;;;;4884133;29;19934;-81
2023/07/19 08:45:50;;;;;;;;;;;;;;;;;;4889947;29;20568;-81
2023/07/19 08:48:18;;;;;;;;;;;;;;;;;;4884202;29;20315;-80
2023/07/19 08:50:50;;;;;;;;;;;;;;;;;;4883878;29;19935;-83
2023/07/19 08:53:18;;;;;;;;;;;;;;;;;;4886035;29;19935;-80
2023/07/19 08:55:45;;;;;;;;;;;;;;;;;;4888722;29;19942;-81
2023/07/19 08:58:13;;;;;;;;;;;;;;;;;;4895459;29;19935;-83
2023/07/19 09:00:40;;;;;;;;;;;;;;;;;;4887191;29;19935;-79
2023/07/19 09:03:09;;;;;;;;;;;;;;;;;;4882294;29;19935;-81
2023/07/19 09:05:42;;;;;;;;;;;;;;;;;;4889558;29;19927;-82
2023/07/19 09:08:15;;;;;;;;;;;;;;;;;;4892120;29;19957;-82
2023/07/19 09:10:42;;;;;;;;;;;;;;;;;;4885028;29;19935;-81
2023/07/19 09:13:17;;;;;;;;;;;;;;;;;;4885931;29;20424;-82
2023/07/19 09:15:50;;;;;;;;;;;;;;;;;;4886857;29;19946;-81
2023/07/19 09:18:17;;;;;;;;;;;;;;;;;;4893847;29;20407;-81
2023/07/19 09:20:45;;;;;;;;;;;;;;;;;;4889464;29;20453;-80
2023/07/19 09:23:18;;;;;;;;;;;;;;;;;;4889868;29;20932;-83
2023/07/19 09:25:46;;;;;;;;;;;;;;;;;;4881258;29;20871;-82
2023/07/19 09:28:13;;;;;;;;;;;;;;;;;;4888242;29;19935;-80
2023/07/19 09:30:46;;;;;;;;;;;;;;;;;;4863953;29;19935;-82
2023/07/19 09:33:14;;;;;;;;;;;;;;;;;;4885155;29;19939;-83
2023/07/19 09:35:47;;;;;;;;;;;;;;;;;;4886952;29;19939;-79
2023/07/19 09:38:20;;;;;;;;;;;;;;;;;;4882916;29;19935;-80
2023/07/19 09:40:47;;;;;;;;;;;;;;;;;;4890376;29;19942;-83
2023/07/19 09:43:20;;;;;;;;;;;;;;;;;;4874165;29;19935;-79
2023/07/19 09:45:48;;;;;;;;;;;;;;;;;;4888473;29;19935;-81
2023/07/19 09:48:20;;;;;;;;;;;;;;;;;;4884401;29;19935;-79
2023/07/19 09:50:49;;;;;;;;;;;;;;;;;;4890239;29;20480;-82
2023/07/19 09:53:16;;;;;;;;;;;;;;;;;;4886316;29;20657;-82
2023/07/19 09:55:49;;;;;;;;;;;;;;;;;;4886275;29;20009;-83
2023/07/19 09:58:16;;;;;;;;;;;;;;;;;;4883653;29;19935;-81
2023/07/19 10:00:49;;;;;;;;;;;;;;;;;;4890030;29;19935;-81
2023/07/19 10:03:16;;;;;;;;;;;;;;;;;;4888396;29;20760;-81
2023/07/19 10:05:44;;;;;;;;;;;;;;;;;;4883980;29;19931;-80
2023/07/19 10:08:12;;;;;;;;;;;;;;;;;;4883509;29;19950;-82
2023/07/19 10:10:44;;;;;;;;;;;;;;;;;;4879995;29;20617;-80
2023/07/19 10:13:13;;;;;;;;;;;;;;;;;;4881763;29;19936;-81
2023/07/19 10:15:41;;;;;;;;;;;;;;;;;;4885999;29;19935;-81
2023/07/19 10:18:13;;;;;;;;;;;;;;;;;;4871555;29;19935;-82
2023/07/19 10:20:46;;;;;;;;;;;;;;;;;;4884650;29;20646;-81
2023/07/19 10:23:19;;;;;;;;;;;;;;;;;;4885575;29;20655;-81
2023/07/19 10:25:47;;;;;;;;;;;;;;;;;;4882624;29;20946;-81
2023/07/19 10:28:20;;;;;;;;;;;;;;;;;;4884582;29;19935;-82
2023/07/19 10:30:52;;;;;;;;;;;;;;;;;;4892497;29;19965;-80
2023/07/19 10:33:25;;;;;;;;;;;;;;;;;;4892159;29;19935;-79
2023/07/19 10:35:53;;;;;;;;;;;;;;;;;;4838116;29;21183;-80
2023/07/19 10:38:20;;;;;;;;;;;;;;;;;;4882936;29;19946;-81
2023/07/19 10:40:53;;;;;;;;;;;;;;;;;;4895241;29;19957;-83
2023/07/19 10:43:20;;;;;;;;;;;;;;;;;;4877925;29;19935;-81
2023/07/19 10:45:48;;;;;;;;;;;;;;;;;;4873530;29;19942;-80
2023/07/19 10:48:16;;;;;;;;;;;;;;;;;;4884124;29;21347;-82
2023/07/19 10:50:43;;;;;;;;;;;;;;;;;;4889030;29;19942;-79
2023/07/19 10:53:12;;;;;;;;;;;;;;;;;;4884136;29;19935;-83
2023/07/19 10:55:39;;;;;;;;;;;;;;;;;;4893795;29;19935;-84
2023/07/19 10:58:07;;;;;;;;;;;;;;;;;;4885021;29;20021;-80
2023/07/19 11:00:35;;;;;;;;;;;;;;;;;;4885748;29;19942;-83
2023/07/19 11:03:02;;;;;;;;;;;;;;;;;;4888835;29;20528;-81
2023/07/19 11:05:30;;;;;;;;;;;;;;;;;;4878143;29;19927;-81
2023/07/19 11:07:57;;;;;;;;;;;;;;;;;;4873369;29;19943;-83
2023/07/19 11:10:25;;;;;;;;;;;;;;;;;;4878116;29;20464;-82
2023/07/19 11:12:53;;;;;;;;;;;;;;;;;;4884653;29;20303;-81
2023/07/19 11:15:20;;;;;;;;;;;;;;;;;;4886198;29;19935;-80
2023/07/19 11:17:48;;;;;;;;;;;;;;;;;;4884047;29;20470;-82
2023/07/19 11:20:15;;;;;;;;;;;;;;;;;;4883450;29;19935;-79
2023/07/19 11:22:48;;;;;;;;;;;;;;;;;;4884425;29;19943;-80
2023/07/19 11:25:16;;;;;;;;;;;;;;;;;;4875240;29;19935;-82
2023/07/19 11:27:44;;;;;;;;;;;;;;;;;;4887001;29;19935;-78
2023/07/19 11:30:11;;;;;;;;;;;;;;;;;;4887120;29;19942;-77
2023/07/19 11:32:39;;;;;;;;;;;;;;;;;;4890237;29;19935;-78
2023/07/19 11:35:06;;;;;;;;;;;;;;;;;;4893861;29;20422;-81
2023/07/19 11:37:35;;;;;;;;;;;;;;;;;;4862503;29;19935;-78
2023/07/19 11:40:05;;;;;;;;;;;;;;;;;;4892625;29;19951;-79
2023/07/19 11:42:33;;;;;;;;;;;;;;;;;;4894632;29;19942;-81
2023/07/19 11:45:00;;;;;;;;;;;;;;;;;;4899778;29;19931;-81
2023/07/19 11:47:28;;;;;;;;;;;;;;;;;;4887841;29;19935;-78
2023/07/19 11:49:55;;;;;;;;;;;;;;;;;;4888922;29;19935;-80
2023/07/19 11:52:23;;;;;;;;;;;;;;;;;;4889089;29;20622;-79
2023/07/19 11:54:56;;;;;;;;;;;;;;;;;;4891470;29;19935;-77
2023/07/19 11:57:23;;;;;;;;;;;;;;;;;;4890090;29;20652;-78
2023/07/19 11:59:56;;;;;;;;;;;;;;;;;;4900761;29;19927;-80
2023/07/19 12:02:24;;;;;;;;;;;;;;;;;;4889565;29;19935;-81
2023/07/19 12:04:52;;;;;;;;;;;;;;;;;;4891209;29;20324;-79
2023/07/19 12:07:25;;;;;;;;;;;;;;;;;;4893997;29;19935;-82
2023/07/19 12:09:57;;;;;;;;;;;;;;;;;;4889543;29;20078;-79
2023/07/19 12:12:25;;;;;;;;;;;;;;;;;;4889556;29;20339;-80
2023/07/19 12:14:52;;;;;;;;;;;;;;;;;;4890906;29;19946;-80
2023/07/19 12:17:25;;;;;;;;;;;;;;;;;;4892416;29;19935;-79
2023/07/19 12:19:53;;;;;;;;;;;;;;;;;;4893962;29;19935;-82
2023/07/19 12:22:21;;;;;;;;;;;;;;;;;;4891571;29;19935;-78
2023/07/19 12:24:54;;;;;;;;;;;;;;;;;;4893865;29;19935;-79
2023/07/19 12:27:27;;;;;;;;;;;;;;;;;;4882222;29;20731;-80
2023/07/19 12:29:55;;;;;;;;;;;;;;;;;;4887959;29;19942;-80
2023/07/19 12:32:23;;;;;;;;;;;;;;;;;;4890211;29;19935;-78
2023/07/19 12:34:51;;;;;;;;;;;;;;;;;;4887255;29;20360;-79
2023/07/19 12:37:19;;;;;;;;;;;;;;;;;;4867294;29;19931;-80
2023/07/19 12:39:52;;;;;;;;;;;;;;;;;;4889111;29;20497;-79
2023/07/19 12:42:20;;;;;;;;;;;;;;;;;;4885712;29;19942;-79
2023/07/19 12:44:47;;;;;;;;;;;;;;;;;;4871659;29;19935;-81
2023/07/19 12:47:15;;;;;;;;;;;;;;;;;;4875099;29;20371;-78
2023/07/19 12:49:43;;;;;;;;;;;;;;;;;;4887802;29;19935;-78
2023/07/19 12:52:15;;;;;;;;;;;;;;;;;;4892327;29;19931;-79
2023/07/19 12:54:43;;;;;;;;;;;;;;;;;;4879148;29;19942;-79
2023/07/19 12:57:15;;;;;;;;;;;;;;;;;;4892255;29;19938;-78
2023/07/19 12:59:48;;;;;;;;;;;;;;;;;;4887488;29;19941;-78
2023/07/19 13:02:16;;;;;;;;;;;;;;;;;;4886379;29;19935;-80
2023/07/19 13:04:48;;;;;;;;;;;;;;;;;;4887518;29;19935;-79
2023/07/19 13:07:16;;;;;;;;;;;;;;;;;;4874005;29;20901;-80
2023/07/19 13:09:44;;;;;;;;;;;;;;;;;;4886421;29;20899;-78
2023/07/19 13:12:11;;;;;;;;;;;;;;;;;;4887456;29;19943;-80
2023/07/19 13:14:44;;;;;;;;;;;;;;;;;;4891567;29;19950;-81
2023/07/19 13:17:17;;;;;;;;;;;;;;;;;;4888724;29;19935;-81
2023/07/19 13:19:46;;;;;;;;;;;;;;;;;;4894859;29;20533;-81
2023/07/19 13:22:13;;;;;;;;;;;;;;;;;;4886906;29;19942;-79
2023/07/19 13:24:41;;;;;;;;;;;;;;;;;;4885130;29;19938;-80
2023/07/19 13:27:14;;;;;;;;;;;;;;;;;;4892042;29;19942;-81
2023/07/19 13:29:46;;;;;;;;;;;;;;;;;;4885851;29;20761;-78
2023/07/19 13:32:19;;;;;;;;;;;;;;;;;;4882777;29;20085;-79
2023/07/19 13:34:51;;;;;;;;;;;;;;;;;;4884435;29;19942;-84
2023/07/19 13:37:19;;;;;;;;;;;;;;;;;;4868545;29;19950;-78
2023/07/19 13:39:46;;;;;;;;;;;;;;;;;;4875997;29;19935;-83
2023/07/19 13:42:15;;;;;;;;;;;;;;;;;;4888313;29;19935;-79
2023/07/19 13:44:48;;;;;;;;;;;;;;;;;;4885693;29;19942;-79
2023/07/19 13:47:20;;;;;;;;;;;;;;;;;;4886995;29;19942;-80
2023/07/19 13:49:48;;;;;;;;;;;;;;;;;;4888523;29;20411;-79
2023/07/19 13:52:20;;;;;;;;;;;;;;;;;;4894491;29;19939;-79
2023/07/19 13:54:53;;;;;;;;;;;;;;;;;;4879242;29;19942;-80
2023/07/19 13:57:27;;;;;;;;;;;;;;;;;;4885919;29;20692;-78
2023/07/19 13:59:59;;;;;;;;;;;;;;;;;;4886781;29;19935;-79
2023/07/19 14:02:29;;;;;;;;;;;;;;;;;;4869197;29;19938;-79
2023/07/19 14:04:56;;;;;;;;;;;;;;;;;;4890041;29;19942;-81
2023/07/19 14:07:24;;;;;;;;;;;;;;;;;;4883827;29;21202;-80
2023/07/19 14:09:52;;;;;;;;;;;;;;;;;;4881924;29;20941;-79
2023/07/19 14:12:19;;;;;;;;;;;;;;;;;;4891474;29;19942;-80
2023/07/19 14:14:47;;;;;;;;;;;;;;;;;;4887191;29;20461;-79
2023/07/19 14:17:15;;;;;;;;;;;;;;;;;;4882127;29;19938;-80
2023/07/19 14:19:42;;;;;;;;;;;;;;;;;;4883422;29;20296;-78
2023/07/19 14:22:15;;;;;;;;;;;;;;;;;;4890095;29;19935;-80
2023/07/19 14:24:42;;;;;;;;;;;;;;;;;;4892349;29;19942;-77
2023/07/19 14:27:15;;;;;;;;;;;;;;;;;;4881257;29;19945;-81
2023/07/19 14:29:43;;;;;;;;;;;;;;;;;;4883062;29;19935;-78
2023/07/19 14:32:10;;;;;;;;;;;;;;;;;;4892607;29;19935;-81
2023/07/19 14:34:38;;;;;;;;;;;;;;;;;;4883919;29;19935;-81
2023/07/19 14:37:11;;;;;;;;;;;;;;;;;;4855741;29;21188;-81
2023/07/19 14:39:44;;;;;;;;;;;;;;;;;;4879168;29;19935;-80
2023/07/19 14:42:11;;;;;;;;;;;;;;;;;;4881545;29;19942;-78
2023/07/19 14:44:39;;;;;;;;;;;;;;;;;;4882817;29;19935;-81
2023/07/19 14:47:06;;;;;;;;;;;;;;;;;;4883085;29;19935;-82
2023/07/19 14:49:40;;;;;;;;;;;;;;;;;;4887986;29;19935;-79
2023/07/19 14:52:08;;;;;;;;;;;;;;;;;;4881083;29;19935;-79
2023/07/19 14:54:35;;;;;;;;;;;;;;;;;;4872622;29;19935;-80
2023/07/19 14:57:03;;;;;;;;;;;;;;;;;;4886324;29;20744;-79
2023/07/19 14:59:36;;;;;;;;;;;;;;;;;;4885410;29;19934;-80
2023/07/19 15:02:08;;;;;;;;;;;;;;;;;;4875132;29;19931;-79
2023/07/19 15:04:36;;;;;;;;;;;;;;;;;;4888745;29;19938;-78
2023/07/19 15:07:04;;;;;;;;;;;;;;;;;;4890699;29;19935;-79
2023/07/19 15:09:32;;;;;;;;;;;;;;;;;;4891254;29;19935;-79
2023/07/19 15:11:59;;;;;;;;;;;;;;;;;;4889397;29;19935;-77
2023/07/19 15:14:33;;;;;;;;;;;;;;;;;;4888808;29;19935;-78
2023/07/19 15:17:00;;;;;;;;;;;;;;;;;;4894078;29;20442;-77
2023/07/19 15:19:28;;;;;;;;;;;;;;;;;;4890734;29;19966;-78
2023/07/19 15:21:56;;;;;;;;;;;;;;;;;;4889860;29;19942;-77
2023/07/19 15:24:28;;;;;;;;;;;;;;;;;;4889311;29;19935;-78
2023/07/19 15:27:01;;;;;;;;;;;;;;;;;;4890389;29;19943;-77
2023/07/19 15:29:29;;;;;;;;;;;;;;;;;;4888830;29;19935;-79
2023/07/19 15:31:57;;;;;;;;;;;;;;;;;;4894374;29;19995;-80
2023/07/19 15:34:25;;;;;;;;;;;;;;;;;;4887324;29;19941;-78
2023/07/19 15:36:52;;;;;;;;;;;;;;;;;;4866975;29;19939;-83
2023/07/19 15:39:25;;;;;;;;;;;;;;;;;;4872647;29;19935;-79
2023/07/19 15:41:57;;;;;;;;;;;;;;;;;;4868658;29;20534;-78
2023/07/19 15:44:26;;;;;;;;;;;;;;;;;;4890116;29;19935;-82
2023/07/19 15:46:53;;;;;;;;;;;;;;;;;;4886446;29;19946;-79
2023/07/19 15:49:26;;;;;;;;;;;;;;;;;;4888642;29;19974;-80
2023/07/19 15:51:54;;;;;;;;;;;;;;;;;;4890488;29;20673;-78
2023/07/19 15:54:21;;;;;;;;;;;;;;;;;;4891357;29;19938;-80
2023/07/19 15:56:49;;;;;;;;;;;;;;;;;;4888485;29;19946;-80
2023/07/19 15:59:16;;;;;;;;;;;;;;;;;;4888454;29;19954;-79
2023/07/19 16:01:44;;;;;;;;;;;;;;;;;;4888264;29;20354;-82
2023/07/19 16:04:16;;;;;;;;;;;;;;;;;;4895555;29;19946;-82
2023/07/19 16:06:44;;;;;;;;;;;;;;;;;;4888631;29;19935;-78
2023/07/19 16:09:11;;;;;;;;;;;;;;;;;;4891601;29;19946;-81
2023/07/19 16:11:39;;;;;;;;;;;;;;;;;;4888316;29;19936;-80
2023/07/19 16:14:07;;;;;;;;;;;;;;;;;;4893153;29;20442;-79
2023/07/19 16:16:35;;;;;;;;;;;;;;;;;;4894043;29;20631;-78
2023/07/19 16:19:07;;;;;;;;;;;;;;;;;;4885615;29;19935;-80
2023/07/19 16:21:35;;;;;;;;;;;;;;;;;;4888069;29;19935;-78
2023/07/19 16:24:03;;;;;;;;;;;;;;;;;;4883190;29;19935;-78
2023/07/19 16:26:31;;;;;;;;;;;;;;;;;;4895761;29;20384;-80
2023/07/19 16:29:03;;;;;;;;;;;;;;;;;;4891399;29;19946;-80
2023/07/19 16:31:36;;;;;;;;;;;;;;;;;;4894590;29;20455;-77
2023/07/19 16:34:04;;;;;;;;;;;;;;;;;;4885389;29;20261;-79
2023/07/19 16:36:31;;;;;;;;;;;;;;;;;;4884720;29;19939;-79
2023/07/19 16:38:59;;;;;;;;;;;;;;;;;;4868118;29;20642;-78
2023/07/19 16:41:26;;;;;;;;;;;;;;;;;;4891621;29;19942;-78
2023/07/19 16:43:59;;;;;;;;;;;;;;;;;;4893259;29;19935;-79
2023/07/19 16:46:27;;;;;;;;;;;;;;;;;;4885793;29;19935;-78
2023/07/19 16:49:00;;;;;;;;;;;;;;;;;;4887680;29;19935;-77
2023/07/19 16:51:27;;;;;;;;;;;;;;;;;;4878250;29;19942;-78
2023/07/19 16:53:55;;;;;;;;;;;;;;;;;;4884056;29;19935;-78
2023/07/19 16:56:22;;;;;;;;;;;;;;;;;;4887163;29;19942;-78
2023/07/19 16:58:50;;;;;;;;;;;;;;;;;;4889600;29;21059;-81
2023/07/19 17:01:17;;;;;;;;;;;;;;;;;;4887594;29;20380;-78